Burns Pinion Ridge Reserve, California Weather observations

Data are for 10 minute period ending at time listed.
 Day   Time   Solar   Ave.   Ave.  Ave.  Vector  Max.   Baro.   Total    
  of    of     Rad.   Air    Rel.  Wind   Wind   Wind  Press.  Precip.   
Year   Day            Temp.  Hum.  Speed  Dir.   Gust                    
2015   (PST)  Kw/m2    F      %     mph   deg.    mph    mb.     in.     
-------------------------------------------------------------------------
 143    5:10   0.01   45.0    73    4.1   187     6.7   874.6    0.00 
 143    5:20   0.06   45.5    73    1.7   207     4.7   874.7    0.00 
 143    5:30   0.09   48.3    66    0.2     1     1.5   874.8    0.00 
 143    5:40   0.12   51.2    59    0.0   114     1.0   874.9    0.00 
 143    5:50   0.16   54.1    51    0.6   272     2.8   874.9    0.00 
 143    6:00   0.19   58.1    41    0.9   236     2.9   875.0    0.00 
 143    6:10   0.23   57.7    42    2.5   318     4.7   874.9    0.00 
 143    6:20   0.26   57.3    42    2.2   342     3.9   874.9    0.00 
 143    6:30   0.30   59.9    37    1.3   351     3.7   874.8    0.00 
 143    6:40   0.33   59.9    35    2.2   279     3.7   874.9    0.00 
 143    6:50   0.37   60.2    35    2.0   197     4.3   874.9    0.00 
 143    7:00   0.41   60.2    35    3.9   196     6.1   874.9    0.00 
 143    7:10   0.44   60.5    40    4.2   169     6.2   874.9    0.00 
 143    7:20   0.48   60.9    37    4.1   169     6.8   875.0    0.00 
 143    7:30   0.51   61.4    36    4.6   164     7.5   875.0    0.00 
 143    7:40   0.55   61.8    36    4.4   171     7.9   875.0    0.00 
 143    7:50   0.58   61.8    35    4.0   147     7.2   875.1    0.00 
 143    8:00   0.61   62.0    35    4.0   174     8.6   875.2    0.00 
 143    8:10   0.65   62.7    34    4.2   188     8.2   875.2    0.00 
 143    8:20   0.68   61.8    35    5.0   212     9.2   875.2    0.00 
 143    8:30   0.71   61.4    36    6.2   217    11.1   875.2    0.00 
 143    8:40   0.74   61.6    37    7.0   208    12.8   875.2    0.00 
 143    8:50   0.77   60.6    39    6.9   217    11.5   875.2    0.00 
 143    9:00   0.80   62.2    37    5.7   208    13.7   875.2    0.00 
 143    9:10   0.82   62.7    35    5.8   197    11.6   875.4    0.00 
 143    9:20   0.85   62.6    36    5.0   196    10.7   875.5    0.00 
 143    9:30   0.87   63.4    35    6.2   210    12.7   875.5    0.00 
 143    9:40   0.89   64.0    35    6.1   189    13.6   875.5    0.00 
 143    9:50   0.91   64.4    35    7.3   213    15.6   875.6    0.00 
 143   10:00   0.93   63.6    37    7.8   203    14.4   875.7    0.00 
 143   10:10   0.94   64.2    37    6.6   214    13.6   875.7    0.00 
 143   10:20   0.96   63.9    37    6.6   218    13.2   875.7    0.00 
 143   10:30   0.97   64.0    36    8.3   219    14.5   875.7    0.00 
 143   10:40   0.98   65.3    34    6.3   161    14.8   875.7    0.00 
 143   10:50   0.99   65.3    34    6.9   202    14.3   875.7    0.00 
 143   11:00   1.00   65.7    33    7.0   214    13.7   875.7    0.00 
 143   11:10   1.01   65.9    33    8.2   234    15.8   875.6    0.00 
 143   11:20   1.01   66.3    33    6.9   220    13.6   875.6    0.00 
 143   11:30   1.02   66.1    33    7.4   206    14.8   875.5    0.00 
 143   11:40   1.02   67.0    32    7.9   185    14.6   875.4    0.00 
 143   11:50   1.02   66.9    32    7.5   211    17.0   875.4    0.00 
 143   12:00   1.00   66.6    33    7.9   209    17.2   875.4    0.00 
 143   12:10   1.01   66.7    33    8.2   207    14.6   875.3    0.00 
 143   12:20   1.01   66.3    33    8.8   220    16.5   875.4    0.00 
 143   12:30   1.01   66.4    33    8.7   213    16.1   875.4    0.00 
 143   12:40   1.01   66.5    32    8.3   223    15.9   875.4    0.00 
 143   12:50   1.01   68.0    30    8.0   202    18.6   875.4    0.00 
 143   13:00   0.99   67.5    31    9.2   205    15.1   875.2    0.00 
 143   13:10   1.01   67.8    31    8.2   205    16.0   875.2    0.00 
 143   13:20   1.02   67.6    29    9.4   206    18.9   875.1    0.00 
 143   13:30   1.01   68.1    29    8.7   205    15.8   875.0    0.00 
 143   13:40   0.95   67.4    30    8.4   210    17.8   874.9    0.00 
 143   13:50   0.94   68.6    28    7.7   210    19.3   874.8    0.00 
 143   14:00   0.97   69.1    28    7.2   207    15.3   874.8    0.00 
 143   14:10   0.94   68.4    29    7.8   212    14.3   874.7    0.00 
 143   14:20   0.86   69.7    28    7.1   194    15.3   874.5    0.00 
 143   14:30   0.88   69.4    28    7.7   210    14.5   874.4    0.00 
 143   14:40   0.67   67.9    30    8.6   216    18.1   874.4    0.00 
 143   14:50   0.43   66.6    32    9.0   215    17.5   874.3    0.00 
 143   15:00   0.65   66.4    32    9.7   210    18.7   874.1    0.00 
 143   15:10   0.72   66.6    32   10.1   207    19.8   874.1    0.00 
 143   15:20   0.68   66.5    32   10.0   209    17.5   874.0    0.00 
 143   15:30   0.64   67.3    31    8.4   208    14.7   873.9    0.00 
 143   15:40   0.62   67.4    31    8.1   210    15.4   873.9    0.00 
 143   15:50   0.57   66.2    33    9.2   222    17.1   873.8    0.00 
 143   16:00   0.53   66.3    32    7.9   210    16.9   873.7    0.00 
 143   16:10   0.50   66.4    33    9.3   209    17.3   873.7    0.00 
 143   16:20   0.46   66.2    35    8.1   206    16.3   873.6    0.00 
 143   16:30   0.42   65.0    38   11.4   226    17.5   873.6    0.00 
 143   16:40   0.39   65.1    39    8.5   200    14.8   873.5    0.00 
 143   16:50   0.35   64.4    41    9.3   211    17.7   873.4    0.00 
 143   17:00   0.32   64.5    42    8.7   208    16.5   873.3    0.00 
 143   17:10   0.28   63.5    44    9.7   212    18.0   873.2    0.00 
 143   17:20   0.24   62.6    46   10.4   214    15.9   873.1    0.00 
 143   17:30   0.21   61.6    48   10.3   213    15.6   873.0    0.00 
 143   17:40   0.18   61.2    49    9.3   209    15.6   872.9    0.00 
 143   17:50   0.15   60.9    50    8.2   190    14.2   872.9    0.00 
 143   18:00   0.11   60.0    53    8.0   208    15.0   872.8    0.00 
 143   18:10   0.08   58.7    55    8.1   208    13.7   872.8    0.00 
 143   18:20   0.04   57.9    57    7.2   194    12.4   872.8    0.00 
 143   18:30   0.03   56.7    60    7.1   190    13.7   872.8    0.00 
 143   18:40   0.01   55.4    63    6.7   202    12.6   872.8    0.00 
 143   18:50   0.00   54.7    64    6.7   207    12.7   872.8    0.00 
 143   19:00   0.00   54.3    65    7.2   199    11.6   872.9    0.00 
 143   19:10   0.00   53.7    66    7.9   204    12.9   873.0    0.00 
 143   19:20   0.00   53.3    68    8.8   207    13.5   873.0    0.00 
 143   19:30   0.00   53.1    68    8.1   199    11.7   873.1    0.00 
 143   19:40   0.00   52.8    69    8.0   192    11.8   873.1    0.00 
 143   19:50   0.00   52.5    70    7.5   198    10.7   873.0    0.00 
 143   20:00   0.00   52.3    70    8.2   197    13.9   873.0    0.00 
 143   20:10   0.00   52.1    71    8.6   194    15.9   873.1    0.00 
 143   20:20   0.00   51.9    71   10.2   209    15.9   873.3    0.00 
 143   20:30   0.00   51.6    72    7.8   194    14.9   873.4    0.00 
 143   20:40   0.00   51.4    73    8.0   189    13.8   873.5    0.00 
 143   20:50   0.00   51.1    74    9.6   201    15.3   873.6    0.00 
 143   21:00   0.00   51.1    74   10.5   204    14.7   873.6    0.00 
 143   21:10   0.00   51.0    74    7.8   193    12.9   873.6    0.00 
 143   21:20   0.00   51.0    73    8.0   186    12.1   873.6    0.00 
 143   21:30   0.00   51.1    73    8.0   188    11.2   873.6    0.00 
 143   21:40   0.00   51.0    73    7.5   197    10.8   873.6    0.00 
 143   21:50   0.00   51.0    73    5.3   193     9.4   873.5    0.00 
 143   22:00   0.00   50.6    73    1.8   168     6.9   873.5    0.00 
 143   22:10   0.00   50.5    73    1.2   106     3.9   873.5    0.00 
 143   22:20   0.00   50.2    74    1.6   130     2.2   873.5    0.00 
 143   22:30   0.00   49.2    74    1.2   220     3.6   873.5    0.00 
 143   22:40   0.00   48.7    74    0.3   172     1.3   873.5    0.00 
 143   22:50   0.00   48.1    74    1.2   134     3.6   873.4    0.00 
 143   23:00   0.00   47.9    74    1.8   126     3.6   873.4    0.00 
 143   23:10   0.00   47.9    74    1.0   144     2.2   873.4    0.00 
 143   23:20   0.00   47.3    74    1.7   114     3.1   873.3    0.00 
 143   23:30   0.00   46.8    74    0.5   121     2.0   873.2    0.00 
 143   23:40   0.00   46.2    74    1.2   138     2.3   873.2    0.00 
 143   23:50   0.00   45.9    74    1.6   331     3.9   873.2    0.00 
 144    0:00   0.00   46.2    75    0.0     0     0.0   873.1    0.00 
 144    0:10   0.00   45.8    76    0.0   317     1.1   873.1    0.00 
 144    0:20   0.00   45.5    75    0.9   313     2.0   873.1    0.00 
 144    0:30   0.00   45.8    74    0.0     0     0.0   872.9    0.00 
 144    0:40   0.00   45.3    75    0.8   333     2.7   872.8    0.00 
 144    0:50   0.00   45.9    74    0.4    13     2.0   872.8    0.00 
 144    1:00   0.00   46.2    72    1.9    55     4.0   872.8    0.00 
 144    1:10   0.00   48.2    68    2.0    73     3.6   872.8    0.00 
 144    1:20   0.00   49.0    66    1.2    43     3.2   872.6    0.00 
 144    1:30   0.00   49.9    64    3.7    92     7.6   872.6    0.00 
 144    1:40   0.00   53.1    58    3.9    86     8.8   872.5    0.00 
 144    1:50   0.00   52.4    60    3.7    49     5.8   872.5    0.00 
 144    2:00   0.00   51.6    60    3.7    34     7.2   872.4    0.00 
 144    2:10   0.00   51.4    59    2.4    21     5.0   872.2    0.00 
 144    2:20   0.00   49.9    60    2.5   349     6.7   872.1    0.00 
 144    2:30   0.00   48.2    62    2.6   306     4.8   872.1    0.00 
 144    2:40   0.00   49.2    60    6.1   315    12.3   872.1    0.00 
 144    2:50   0.00   51.9    53    7.4   302    13.6   872.1    0.00 
 144    3:00   0.00   54.1    51    9.7   298    16.9   872.1    0.00 
 144    3:10   0.00   54.3    50    8.6   292    14.5   872.1    0.00 
 144    3:20   0.00   54.0    50    5.9   284     9.4   871.9    0.00 
 144    3:30   0.00   53.5    51    7.4   296    15.1   872.1    0.00 
 144    3:40   0.00   54.2    50    9.8   294    15.1   872.1    0.00 
 144    3:50   0.00   53.8    51    7.0   297    10.0   872.0    0.00 
 144    4:00   0.00   52.8    52    3.8   282     7.9   872.1    0.00 
 144    4:10   0.00   51.3    54    1.6   264     5.0   872.3    0.00 
 144    4:20   0.00   50.3    56    2.4   295     6.9   872.4    0.00 
 144    4:30   0.00   51.8    55    4.6   324     8.1   872.6    0.00 
 144    4:40   0.00   51.6    58    5.9   328     9.9   872.6    0.00 
 144    4:50   0.00   52.0    58    7.4   314    14.8   872.5    0.00 
 144    5:00   0.01   53.4    54   10.0   315    16.6   872.6    0.00 

Return to Burns Pinion Ridge Reserve graphs page.


Western Regional Climate Center,wrcc@dri.edu